Time;durP1;ratioP1;P1;durP2;ratioP2;P2;SDS_P1;SDS_P2;PMS_P1;PMS_P2;Temp;Humidity;BMP_temperature;BMP_pressure;BME280_temperature;BME280_humidity;BME280_pressure;Samples;Min_cycle;Max_cycle;Signal;HPM_P1;HPM_P2
2021/01/28 00:00:12;;;;;;;;;;;;;;;22.06;38.86;100425.03;3065070;28;114726;-65
2021/01/28 00:01:45;;;;;;;;;;;;;;;22.04;38.75;100411.28;3069029;28;114662;-65
2021/01/28 00:03:19;;;;;;;;;;;;;;;22.04;38.76;100413.25;3067509;28;116809;-62
2021/01/28 00:04:53;;;;;;;;;;;;;;;22.02;39.01;100405.19;3066641;28;115762;-64
2021/01/28 00:06:27;;;;;;;;;;;;;;;22.03;39.14;100398.38;3065365;28;114091;-66
2021/01/28 00:08:00;;;;;;;;;;;;;;;22.00;38.78;100396.22;3066984;28;113789;-64
2021/01/28 00:09:33;;;;;;;;;;;;;;;21.99;39.08;100397.38;3073246;28;114146;-62
2021/01/28 00:11:05;;;;;;;;;;;;;;;21.98;38.86;100392.94;3067680;28;113892;-62
2021/01/28 00:12:38;;;;;;;;;;;;;;;21.97;38.96;100382.00;3073856;28;114628;-61
2021/01/28 00:14:11;;;;;;;;;;;;;;;21.96;38.85;100377.53;3073356;28;113692;-61
2021/01/28 00:15:44;;;;;;;;;;;;;;;21.96;39.15;100377.53;3071372;28;113830;-64
2021/01/28 00:17:21;;;;;;;;;;;;;;;21.93;39.26;100372.59;3068312;28;115028;-64
2021/01/28 00:18:54;;;;;;;;;;;;;;;21.91;39.13;100356.00;3067843;28;114219;-63
2021/01/28 00:20:28;;;;;;;;;;;;;;;21.91;39.25;100353.19;3065287;28;114549;-65
2021/01/28 00:22:00;;;;;;;;;;;;;;;21.88;39.17;100334.16;3072804;28;114274;-62
2021/01/28 00:23:33;;;;;;;;;;;;;;;21.88;39.03;100333.34;3072056;28;114104;-62
2021/01/28 00:25:07;;;;;;;;;;;;;;;21.87;39.17;100326.88;3068457;28;113861;-64
2021/01/28 00:26:41;;;;;;;;;;;;;;;21.86;39.25;100321.56;3068246;28;113879;-62
2021/01/28 00:28:16;;;;;;;;;;;;;;;21.86;39.09;100321.56;3062519;28;114144;-61
2021/01/28 00:29:50;;;;;;;;;;;;;;;21.83;39.11;100309.03;3057687;28;114631;-64
2021/01/28 00:31:23;;;;;;;;;;;;;;;21.82;39.12;100313.00;3069468;28;114330;-64
2021/01/28 00:32:55;;;;;;;;;;;;;;;21.81;39.18;100313.31;3066679;28;114195;-64
2021/01/28 00:34:27;;;;;;;;;;;;;;;21.79;39.21;100326.91;3069159;28;114356;-65
2021/01/28 00:36:00;;;;;;;;;;;;;;;21.79;38.91;100333.34;3072491;28;114318;-63
2021/01/28 00:37:32;;;;;;;;;;;;;;;21.78;39.35;100348.56;3072386;28;114436;-64
2021/01/28 00:39:06;;;;;;;;;;;;;;;21.79;39.06;100349.38;3066037;28;114387;-62
2021/01/28 00:40:39;;;;;;;;;;;;;;;21.77;39.31;100346.91;3064818;28;114008;-62
2021/01/28 00:42:11;;;;;;;;;;;;;;;21.74;39.31;100342.78;3067887;28;114381;-65
2021/01/28 00:43:43;;;;;;;;;;;;;;;21.74;39.19;100331.53;3064865;28;114172;-66
2021/01/28 00:45:17;;;;;;;;;;;;;;;21.73;39.52;100324.25;3072061;28;114575;-62
2021/01/28 00:46:49;;;;;;;;;;;;;;;21.72;39.36;100321.75;3072206;28;114467;-64
2021/01/28 00:48:24;;;;;;;;;;;;;;;21.70;39.16;100316.50;3071487;28;114108;-64
2021/01/28 00:49:56;;;;;;;;;;;;;;;21.68;39.43;100315.97;3073566;28;114507;-62
2021/01/28 00:51:28;;;;;;;;;;;;;;;21.66;39.51;100309.03;3071928;28;114976;-62
2021/01/28 00:53:00;;;;;;;;;;;;;;;21.67;39.59;100307.88;3072368;28;114560;-62
2021/01/28 00:54:33;;;;;;;;;;;;;;;21.64;39.47;100315.00;3071964;28;114971;-65
2021/01/28 00:56:05;;;;;;;;;;;;;;;21.63;39.42;100312.50;3058975;28;114872;-60
2021/01/28 00:57:39;;;;;;;;;;;;;;;21.62;39.61;100300.41;3064880;28;114607;-64
2021/01/28 00:59:12;;;;;;;;;;;;;;;21.60;39.36;100299.94;3066734;28;115509;-61
2021/01/28 01:00:44;;;;;;;;;;;;;;;21.57;39.36;100288.53;3070223;28;114598;-63
2021/01/28 01:02:16;;;;;;;;;;;;;;;21.58;39.63;100278.94;3058770;28;114549;-63
2021/01/28 01:03:49;;;;;;;;;;;;;;;21.56;39.52;100276.47;3067139;28;114679;-64
2021/01/28 01:05:22;;;;;;;;;;;;;;;21.53;39.60;100268.69;3067024;28;114430;-63
2021/01/28 01:06:57;;;;;;;;;;;;;;;21.53;39.65;100265.88;3055787;28;114733;-64
2021/01/28 01:08:30;;;;;;;;;;;;;;;21.52;39.50;100261.44;3067373;28;115210;-64
2021/01/28 01:10:01;;;;;;;;;;;;;;;21.50;39.69;100260.09;3071184;28;114628;-63
2021/01/28 01:11:34;;;;;;;;;;;;;;;21.51;39.96;100261.75;3074101;28;115273;-61
2021/01/28 01:13:07;;;;;;;;;;;;;;;21.53;39.62;100257.44;3071727;28;114028;-63
2021/01/28 01:14:39;;;;;;;;;;;;;;;21.51;39.79;100251.34;3072597;28;114095;-62
2021/01/28 01:16:12;;;;;;;;;;;;;;;21.49;39.85;100238.75;3072562;28;114618;-65
2021/01/28 01:17:45;;;;;;;;;;;;;;;21.47;39.88;100239.09;3070394;28;114504;-64
2021/01/28 01:19:17;;;;;;;;;;;;;;;21.44;40.07;100234.13;3073041;28;114354;-61
2021/01/28 01:20:49;;;;;;;;;;;;;;;21.42;40.24;100225.22;3073639;28;113882;-63
2021/01/28 01:22:21;;;;;;;;;;;;;;;21.42;40.11;100221.59;3073465;28;114337;-64
2021/01/28 01:23:54;;;;;;;;;;;;;;;21.40;40.07;100213.47;3071464;28;113828;-65
2021/01/28 01:25:26;;;;;;;;;;;;;;;21.40;40.19;100205.03;3068847;28;113980;-61
2021/01/28 01:26:59;;;;;;;;;;;;;;;21.35;40.12;100208.03;3065171;28;113798;-63
2021/01/28 01:28:34;;;;;;;;;;;;;;;21.33;40.44;100199.13;3055952;28;113896;-63
2021/01/28 01:30:06;;;;;;;;;;;;;;;21.32;40.56;100188.19;3066419;28;114250;-63
2021/01/28 01:31:38;;;;;;;;;;;;;;;21.30;40.51;100194.97;3071710;28;113847;-63
2021/01/28 01:33:10;;;;;;;;;;;;;;;21.27;40.33;100186.38;3071682;28;113919;-62
2021/01/28 01:34:42;;;;;;;;;;;;;;;21.27;40.46;100183.56;3069829;28;115189;-62
2021/01/28 01:36:16;;;;;;;;;;;;;;;21.27;40.77;100183.56;3070369;28;115081;-62
2021/01/28 01:37:48;;;;;;;;;;;;;;;21.26;40.79;100182.75;3069340;28;114206;-61
2021/01/28 01:39:19;;;;;;;;;;;;;;;21.26;40.40;100184.72;3071331;28;114511;-64
2021/01/28 01:40:54;;;;;;;;;;;;;;;21.23;40.65;100191.00;3070132;28;114291;-65
2021/01/28 01:42:25;;;;;;;;;;;;;;;21.21;40.56;100187.72;3070057;28;114748;-63
2021/01/28 01:43:58;;;;;;;;;;;;;;;21.21;40.55;100196.97;3071430;28;114182;-62
2021/01/28 01:45:30;;;;;;;;;;;;;;;21.22;40.74;100192.16;3069785;28;114235;-63
2021/01/28 01:47:13;;;;;;;;;;;;;;;21.18;40.68;100182.75;3072016;28;114205;-66
2021/01/28 01:48:47;;;;;;;;;;;;;;;21.17;41.06;100192.34;3068094;28;115204;-63
2021/01/28 01:50:22;;;;;;;;;;;;;;;21.16;40.67;100180.28;3069299;28;115696;-63
2021/01/28 01:51:55;;;;;;;;;;;;;;;21.16;40.93;100187.91;3072971;28;114092;-65
2021/01/28 01:53:30;;;;;;;;;;;;;;;21.16;40.78;100185.91;3072656;28;114527;-63
2021/01/28 01:55:03;;;;;;;;;;;;;;;21.16;40.70;100190.69;3069349;28;114630;-61
2021/01/28 01:56:38;;;;;;;;;;;;;;;21.15;40.67;100183.44;3072792;28;116031;-63
2021/01/28 01:58:11;;;;;;;;;;;;;;;21.14;41.12;100187.38;3071583;28;114644;-65
2021/01/28 01:59:43;;;;;;;;;;;;;;;21.13;40.97;100185.72;3073174;28;114827;-63
2021/01/28 02:01:15;;;;;;;;;;;;;;;21.12;40.73;100172.84;3072127;28;114930;-64
2021/01/28 02:02:50;;;;;;;;;;;;;;;21.10;40.88;100163.91;3059736;28;114881;-64
2021/01/28 02:04:22;;;;;;;;;;;;;;;21.08;40.90;100160.56;3073074;28;116655;-64
2021/01/28 02:05:59;;;;;;;;;;;;;;;21.08;40.99;100152.97;3072519;28;115856;-63
2021/01/28 02:07:32;;;;;;;;;;;;;;;21.05;40.91;100156.47;3071938;28;114744;-62
2021/01/28 02:09:04;;;;;;;;;;;;;;;21.05;41.05;100150.00;3077796;28;115555;-63
2021/01/28 02:10:37;;;;;;;;;;;;;;;21.05;41.35;100135.97;3070364;28;114654;-64
2021/01/28 02:12:08;;;;;;;;;;;;;;;21.04;41.30;100128.69;3068160;28;114742;-62
2021/01/28 02:13:40;;;;;;;;;;;;;;;21.02;41.49;100131.03;3066549;28;116587;-62
2021/01/28 02:15:12;;;;;;;;;;;;;;;21.01;41.23;100127.38;3071372;28;115938;-64
2021/01/28 02:16:47;;;;;;;;;;;;;;;21.00;41.52;100124.91;3071208;28;115206;-63
2021/01/28 02:18:19;;;;;;;;;;;;;;;20.99;41.59;100121.25;3066805;28;116081;-64
2021/01/28 02:19:51;;;;;;;;;;;;;;;20.98;41.51;100122.44;3073125;28;114224;-62
2021/01/28 02:21:25;;;;;;;;;;;;;;;20.98;41.63;100116.84;3073569;28;113947;-62
2021/01/28 02:22:57;;;;;;;;;;;;;;;20.97;41.55;100117.97;3072973;28;113997;-66
2021/01/28 02:24:30;;;;;;;;;;;;;;;20.95;41.57;100106.25;3072424;28;114016;-63
2021/01/28 02:26:01;;;;;;;;;;;;;;;20.95;41.74;100108.22;3077550;28;113748;-65
2021/01/28 02:27:33;;;;;;;;;;;;;;;20.94;41.77;100109.41;3077052;28;114516;-63
2021/01/28 02:29:05;;;;;;;;;;;;;;;20.92;41.54;100103.28;3072417;28;113846;-66
2021/01/28 02:30:40;;;;;;;;;;;;;;;20.91;41.48;100104.44;3073208;28;113941;-63
2021/01/28 02:32:11;;;;;;;;;;;;;;;20.92;41.62;100097.66;3067370;28;114086;-63
2021/01/28 02:33:46;;;;;;;;;;;;;;;20.88;41.74;100091.88;3073519;28;114187;-62
2021/01/28 02:35:19;;;;;;;;;;;;;;;20.88;41.45;100091.06;3067304;28;114106;-61
2021/01/28 02:36:53;;;;;;;;;;;;;;;20.87;41.64;100095.84;3063335;28;113948;-63
2021/01/28 02:38:24;;;;;;;;;;;;;;;20.85;41.80;100082.13;3067115;28;114009;-65
2021/01/28 02:39:56;;;;;;;;;;;;;;;20.86;41.74;100080.16;3075496;28;113853;-63
2021/01/28 02:41:28;;;;;;;;;;;;;;;20.83;41.48;100084.47;3073308;28;118025;-65
2021/01/28 02:43:01;;;;;;;;;;;;;;;20.83;41.53;100078.03;3072886;28;115318;-64
2021/01/28 02:44:33;;;;;;;;;;;;;;;20.80;41.89;100073.88;3071485;28;114319;-64
2021/01/28 02:46:08;;;;;;;;;;;;;;;20.79;41.74;100065.81;3061466;28;114366;-63
2021/01/28 02:47:40;;;;;;;;;;;;;;;20.78;41.99;100064.97;3067547;28;115095;-63
2021/01/28 02:49:15;;;;;;;;;;;;;;;20.80;42.06;100062.63;3058418;28;114511;-64
2021/01/28 02:50:46;;;;;;;;;;;;;;;20.80;41.86;100064.66;3062636;28;114171;-63
2021/01/28 02:52:18;;;;;;;;;;;;;;;20.77;42.01;100054.91;3074720;28;114214;-63
2021/01/28 02:53:52;;;;;;;;;;;;;;;20.77;42.03;100054.91;3075044;28;114926;-62
2021/01/28 02:55:24;;;;;;;;;;;;;;;20.75;42.04;100045.16;3071831;28;115190;-65
2021/01/28 02:56:56;;;;;;;;;;;;;;;20.73;42.06;100042.69;3073546;28;114451;-63
2021/01/28 02:58:27;;;;;;;;;;;;;;;20.73;42.08;100041.84;3070524;28;115071;-64
2021/01/28 02:59:58;;;;;;;;;;;;;;;20.73;42.03;100039.88;3066165;28;114330;-65
2021/01/28 03:01:31;;;;;;;;;;;;;;;20.72;42.07;100028.97;3078212;28;114242;-64
2021/01/28 03:03:05;;;;;;;;;;;;;;;20.70;42.13;100020.91;3066755;28;115099;-62
2021/01/28 03:04:39;;;;;;;;;;;;;;;20.72;41.88;100032.59;3070813;28;114872;-63
2021/01/28 03:06:12;;;;;;;;;;;;;;;20.70;41.92;100025.69;3070210;28;114637;-63
2021/01/28 03:07:43;;;;;;;;;;;;;;;20.70;41.83;100020.06;3074051;28;114324;-64
2021/01/28 03:09:15;;;;;;;;;;;;;;;20.68;41.72;100017.59;3073899;28;114644;-62
2021/01/28 03:10:46;;;;;;;;;;;;;;;20.68;41.95;100006.34;3073642;28;115134;-61
2021/01/28 03:12:19;;;;;;;;;;;;;;;20.67;41.98;100001.09;3069767;28;114694;-61
2021/01/28 03:13:51;;;;;;;;;;;;;;;20.66;42.16;99993.81;3070248;28;116415;-63
2021/01/28 03:15:23;;;;;;;;;;;;;;;20.65;42.11;99997.78;3069155;28;116067;-62
2021/01/28 03:16:54;;;;;;;;;;;;;;;20.62;42.33;99990.88;3075140;28;115837;-63
2021/01/28 03:18:27;;;;;;;;;;;;;;;20.63;42.12;99978.47;3069705;28;115718;-62
2021/01/28 03:19:58;;;;;;;;;;;;;;;20.63;42.22;99981.25;3070140;28;114725;-63
2021/01/28 03:21:29;;;;;;;;;;;;;;;20.62;42.40;99973.19;3070046;28;115783;-61
2021/01/28 03:23:01;;;;;;;;;;;;;;;20.59;42.29;99962.63;3071866;28;119487;-65
2021/01/28 03:24:32;;;;;;;;;;;;;;;20.58;42.41;99967.41;3066118;28;114248;-63
2021/01/28 03:26:03;;;;;;;;;;;;;;;20.58;42.52;99961.00;3064713;28;113837;-64
2021/01/28 03:27:35;;;;;;;;;;;;;;;20.58;42.31;99966.59;3067318;28;114286;-62
2021/01/28 03:29:09;;;;;;;;;;;;;;;20.57;42.25;99959.34;3068197;28;114336;-65
2021/01/28 03:30:46;;;;;;;;;;;;;;;20.57;42.22;99959.34;3067277;28;113866;-62
2021/01/28 03:32:18;;;;;;;;;;;;;;;20.57;42.44;99960.16;3063408;28;113829;-62
2021/01/28 03:33:49;;;;;;;;;;;;;;;20.55;42.25;99959.66;3066836;28;113883;-65
2021/01/28 03:35:21;;;;;;;;;;;;;;;20.52;42.30;99957.53;3068488;28;113950;-62
2021/01/28 03:36:53;;;;;;;;;;;;;;;20.53;42.39;99953.56;3064451;28;114534;-64
2021/01/28 03:38:24;;;;;;;;;;;;;;;20.52;42.32;99932.28;3072021;28;114412;-63
2021/01/28 03:39:56;;;;;;;;;;;;;;;20.51;42.43;99927.81;3072192;28;114160;-64
2021/01/28 03:41:27;;;;;;;;;;;;;;;20.51;42.38;99915.75;3072772;28;114649;-62
2021/01/28 03:42:59;;;;;;;;;;;;;;;20.50;42.69;99922.53;3065651;28;114021;-63
2021/01/28 03:44:31;;;;;;;;;;;;;;;20.49;42.58;99920.91;3075390;28;113735;-63
2021/01/28 03:46:02;;;;;;;;;;;;;;;20.48;42.53;99917.25;3065503;28;114254;-62
2021/01/28 03:47:34;;;;;;;;;;;;;;;20.47;42.43;99921.22;3065690;28;114590;-63
2021/01/28 03:49:06;;;;;;;;;;;;;;;20.47;42.35;99923.19;3073336;28;114240;-63
2021/01/28 03:50:43;;;;;;;;;;;;;;;20.45;42.53;99923.53;3074204;28;114440;-63
2021/01/28 03:52:14;;;;;;;;;;;;;;;20.44;42.53;99927.50;3073567;28;113979;-63
2021/01/28 03:53:46;;;;;;;;;;;;;;;20.43;42.50;99925.84;3067921;28;115467;-64
2021/01/28 03:55:18;;;;;;;;;;;;;;;20.45;42.59;99928.31;3068216;28;115313;-63
2021/01/28 03:56:49;;;;;;;;;;;;;;;20.42;42.60;99935.41;3072984;28;115492;-64
2021/01/28 03:58:21;;;;;;;;;;;;;;;20.41;42.67;99930.97;3069589;28;114421;-64
2021/01/28 03:59:52;;;;;;;;;;;;;;;20.41;42.50;99940.19;3073160;28;114383;-64
2021/01/28 04:01:23;;;;;;;;;;;;;;;20.41;42.62;99933.75;3068614;28;114437;-62
2021/01/28 04:02:55;;;;;;;;;;;;;;;20.41;42.79;99939.38;3072639;28;115237;-66
2021/01/28 04:04:26;;;;;;;;;;;;;;;20.41;42.79;99934.59;3073430;28;114141;-64
2021/01/28 04:05:58;;;;;;;;;;;;;;;20.39;42.80;99927.69;3073918;28;114661;-62
2021/01/28 04:07:30;;;;;;;;;;;;;;;20.39;42.78;99933.28;3078197;28;114299;-65
2021/01/28 04:09:02;;;;;;;;;;;;;;;20.38;42.72;99928.81;3074956;28;116187;-62
2021/01/28 04:10:35;;;;;;;;;;;;;;;20.38;42.87;99928.81;3073573;28;114326;-64
2021/01/28 04:12:07;;;;;;;;;;;;;;;20.36;42.94;99919.91;3069792;28;114655;-64
2021/01/28 04:13:38;;;;;;;;;;;;;;;20.36;42.90;99926.34;3074042;28;115690;-64
2021/01/28 04:15:10;;;;;;;;;;;;;;;20.36;42.54;99925.50;3073950;28;116075;-64
2021/01/28 04:16:42;;;;;;;;;;;;;;;20.34;42.90;99920.25;3073566;28;117556;-61
2021/01/28 04:18:17;;;;;;;;;;;;;;;20.33;42.95;99909.34;3074702;28;114634;-62
2021/01/28 04:19:48;;;;;;;;;;;;;;;20.33;42.90;99895.34;3072996;28;114990;-63
2021/01/28 04:21:20;;;;;;;;;;;;;;;20.34;43.12;99885.75;3072348;28;115620;-61
2021/01/28 04:22:53;;;;;;;;;;;;;;;20.32;43.36;99874.03;3069734;28;114937;-64
2021/01/28 04:24:24;;;;;;;;;;;;;;;20.31;43.30;99858.34;3069246;28;115796;-63
2021/01/28 04:25:56;;;;;;;;;;;;;;;20.31;43.12;99853.56;3074076;28;114661;-62
2021/01/28 04:27:28;;;;;;;;;;;;;;;20.30;43.24;99856.75;3070538;28;114403;-64
2021/01/28 04:29:02;;;;;;;;;;;;;;;20.30;43.40;99876.38;3073375;28;115067;-65
2021/01/28 04:30:35;;;;;;;;;;;;;;;20.30;43.25;99873.56;3060575;28;113792;-62
2021/01/28 04:32:07;;;;;;;;;;;;;;;20.30;43.30;99870.75;3070539;28;114001;-63
2021/01/28 04:33:38;;;;;;;;;;;;;;;20.29;43.28;99863.47;3072721;28;113897;-63
2021/01/28 04:35:10;;;;;;;;;;;;;;;20.27;43.52;99866.59;3069684;28;116676;-64
2021/01/28 04:36:43;;;;;;;;;;;;;;;20.26;43.76;99873.34;3073693;28;113939;-65
2021/01/28 04:38:15;;;;;;;;;;;;;;;20.25;43.64;99863.31;3073975;28;114286;-65
2021/01/28 04:39:48;;;;;;;;;;;;;;;20.25;43.85;99868.09;3064524;28;114241;-64
2021/01/28 04:41:21;;;;;;;;;;;;;;;20.23;43.91;99865.63;3061501;28;113835;-64
2021/01/28 04:42:53;;;;;;;;;;;;;;;20.24;44.02;99863.63;3065188;28;113839;-62
2021/01/28 04:44:26;;;;;;;;;;;;;;;20.25;43.77;99856.88;3074484;28;113942;-64
2021/01/28 04:45:59;;;;;;;;;;;;;;;20.23;43.78;99847.97;3066235;28;114233;-65
2021/01/28 04:47:30;;;;;;;;;;;;;;;20.24;43.84;99856.03;3074252;28;113776;-63
2021/01/28 04:49:05;;;;;;;;;;;;;;;20.22;43.86;99843.50;3073585;28;113895;-64
2021/01/28 04:50:38;;;;;;;;;;;;;;;20.21;43.95;99837.09;3071288;28;113760;-64
2021/01/28 04:52:12;;;;;;;;;;;;;;;20.22;44.34;99827.50;3072208;28;114196;-62
2021/01/28 04:53:46;;;;;;;;;;;;;;;20.20;44.29;99829.00;3075715;28;114041;-62
2021/01/28 04:55:20;;;;;;;;;;;;;;;20.21;44.35;99825.03;3073347;28;114085;-65
2021/01/28 04:56:55;;;;;;;;;;;;;;;20.21;44.23;99836.25;3073700;28;115143;-63
2021/01/28 04:58:26;;;;;;;;;;;;;;;20.19;44.27;99827.34;3057944;28;115508;-63
2021/01/28 04:59:58;;;;;;;;;;;;;;;20.17;44.56;99824.88;3067440;28;115431;-63
2021/01/28 05:01:30;;;;;;;;;;;;;;;20.17;44.61;99822.06;3073090;28;115174;-64
2021/01/28 05:03:06;;;;;;;;;;;;;;;20.17;44.46;99821.25;3076016;28;116793;-63
2021/01/28 05:04:40;;;;;;;;;;;;;;;20.15;44.85;99809.53;3065301;28;114459;-64
2021/01/28 05:06:12;;;;;;;;;;;;;;;20.14;44.67;99810.69;3068509;28;115138;-66
2021/01/28 05:07:45;;;;;;;;;;;;;;;20.15;44.51;99810.38;3071260;28;114412;-63
2021/01/28 05:09:17;;;;;;;;;;;;;;;20.15;44.63;99809.53;3072935;28;114927;-63
2021/01/28 05:10:51;;;;;;;;;;;;;;;20.15;44.92;99812.34;3072367;28;114018;-65
2021/01/28 05:12:22;;;;;;;;;;;;;;;20.13;44.75;99801.44;3072527;28;114656;-65
2021/01/28 05:13:53;;;;;;;;;;;;;;;20.12;44.66;99805.44;3073116;28;114736;-63
2021/01/28 05:15:28;;;;;;;;;;;;;;;20.12;44.63;99801.81;3065760;28;119074;-65
2021/01/28 05:17:00;;;;;;;;;;;;;;;20.13;44.69;99795.03;3071592;28;114536;-63
2021/01/28 05:18:34;;;;;;;;;;;;;;;20.11;44.79;99795.38;3071949;28;117579;-63
2021/01/28 05:20:08;;;;;;;;;;;;;;;20.11;44.60;99794.53;3068327;28;115320;-65
2021/01/28 05:21:42;;;;;;;;;;;;;;;20.12;44.79;99787.78;3069528;28;115858;-63
2021/01/28 05:23:16;;;;;;;;;;;;;;;20.08;44.94;99770.78;3068076;28;118211;-64
2021/01/28 05:24:49;;;;;;;;;;;;;;;20.09;44.73;99780.84;3061760;28;114602;-65
2021/01/28 05:26:24;;;;;;;;;;;;;;;20.09;44.69;99774.41;3072255;28;115888;-66
2021/01/28 05:27:55;;;;;;;;;;;;;;;20.10;44.65;99770.47;3073895;28;114657;-62
2021/01/28 05:29:28;;;;;;;;;;;;;;;20.11;44.64;99769.31;3071838;28;115832;-63
2021/01/28 05:31:00;;;;;;;;;;;;;;;20.13;44.76;99769.78;3072103;28;114945;-63
2021/01/28 05:32:35;;;;;;;;;;;;;;;20.16;44.72;99772.75;3073355;28;115031;-64
2021/01/28 05:34:08;;;;;;;;;;;;;;;20.20;44.69;99768.13;3072657;28;115878;-63
2021/01/28 05:35:39;;;;;;;;;;;;;;;20.23;44.87;99763.81;3074917;28;115893;-64
2021/01/28 05:37:24;;;;;;;;;;;;;;;20.25;45.14;99767.94;3069215;28;114250;-65
2021/01/28 05:38:56;;;;;;;;;;;;;;;20.26;45.36;99760.38;3071680;28;114739;-65
2021/01/28 05:40:30;;;;;;;;;;;;;;;20.27;45.22;99759.19;3073490;28;114408;-64
2021/01/28 05:42:05;;;;;;;;;;;;;;;20.30;45.09;99750.16;3073563;28;114255;-62
2021/01/28 05:43:40;;;;;;;;;;;;;;;20.34;45.16;99757.56;3072886;28;113853;-62
2021/01/28 05:45:15;;;;;;;;;;;;;;;20.37;45.31;99762.47;3072087;28;114649;-62
2021/01/28 05:46:49;;;;;;;;;;;;;;;20.40;45.44;99744.13;3072928;28;113969;-63
2021/01/28 05:48:24;;;;;;;;;;;;;;;20.45;45.50;99745.94;3070206;28;113951;-61
2021/01/28 05:50:12;;;;;;;;;;;;;;;20.48;45.74;99748.91;3073393;28;114107;-61
2021/01/28 05:51:44;;;;;;;;;;;;;;;20.53;45.69;99753.50;3068987;28;113897;-63
2021/01/28 05:53:16;;;;;;;;;;;;;;;20.56;45.70;99753.66;3067435;28;114269;-63
2021/01/28 05:55:02;;;;;;;;;;;;;;;20.62;45.72;99748.69;3067885;28;114025;-62
2021/01/28 05:56:44;;;;;;;;;;;;;;;20.68;45.39;99750.94;3070620;28;114118;-65
2021/01/28 05:58:19;;;;;;;;;;;;;;;20.73;45.11;99747.94;3080271;28;114103;-63
2021/01/28 05:59:54;;;;;;;;;;;;;;;20.78;45.17;99750.56;3075594;28;113969;-66
2021/01/28 06:01:28;;;;;;;;;;;;;;;20.83;44.93;99749.53;3071787;28;117292;-64
2021/01/28 06:03:01;;;;;;;;;;;;;;;20.88;44.73;99754.97;3072260;28;115487;-65
2021/01/28 06:04:39;;;;;;;;;;;;;;;20.94;44.78;99747.16;3067636;28;114481;-63
2021/01/28 06:06:14;;;;;;;;;;;;;;;20.99;45.08;99749.75;3072661;28;114415;-65
2021/01/28 06:07:48;;;;;;;;;;;;;;;21.04;44.97;99753.19;3073044;28;115212;-63
2021/01/28 06:09:22;;;;;;;;;;;;;;;21.08;44.53;99751.34;3072445;28;114901;-62
2021/01/28 06:10:56;;;;;;;;;;;;;;;21.13;44.36;99755.97;3072321;28;114074;-65
2021/01/28 06:12:30;;;;;;;;;;;;;;;21.18;44.10;99747.34;3064606;28;114407;-65
2021/01/28 06:14:08;;;;;;;;;;;;;;;21.22;44.34;99751.09;3071605;28;114085;-64
2021/01/28 06:15:46;;;;;;;;;;;;;;;21.27;44.17;99748.09;3065513;28;115305;-64
2021/01/28 06:17:20;;;;;;;;;;;;;;;21.32;44.11;99750.69;3063870;28;114435;-65
2021/01/28 06:18:55;;;;;;;;;;;;;;;21.35;43.69;99747.19;3067604;28;114112;-64
2021/01/28 06:20:30;;;;;;;;;;;;;;;21.40;43.79;99734.91;3072493;28;115195;-65
2021/01/28 06:22:02;;;;;;;;;;;;;;;21.44;43.68;99741.53;3072900;28;115274;-61
2021/01/28 06:23:37;;;;;;;;;;;;;;;21.48;43.59;99731.25;3071409;28;115228;-63
2021/01/28 06:25:12;;;;;;;;;;;;;;;21.52;44.01;99743.44;3072237;28;114744;-64
2021/01/28 06:26:46;;;;;;;;;;;;;;;21.56;43.52;99752.81;3069463;28;114719;-64
2021/01/28 06:28:18;;;;;;;;;;;;;;;21.60;43.59;99743.34;3070406;28;114860;-62
2021/01/28 06:29:52;;;;;;;;;;;;;;;21.63;43.52;99744.63;3073330;28;115571;-63
2021/01/28 06:31:27;;;;;;;;;;;;;;;21.68;43.57;99741.63;3073807;28;114793;-66
2021/01/28 06:33:01;;;;;;;;;;;;;;;21.71;43.16;99746.56;3061887;28;114698;-64
2021/01/28 06:34:45;;;;;;;;;;;;;;;21.74;43.05;99741.06;3073405;28;114944;-63
2021/01/28 06:36:22;;;;;;;;;;;;;;;21.78;42.97;99729.94;3071169;28;114748;-62
2021/01/28 06:37:58;;;;;;;;;;;;;;;21.83;43.16;99723.28;3072618;28;114621;-63
2021/01/28 06:39:32;;;;;;;;;;;;;;;21.84;42.90;99725.75;3070113;28;114987;-62
2021/01/28 06:41:07;;;;;;;;;;;;;;;21.89;42.82;99730.34;3071477;28;115938;-61
2021/01/28 06:42:41;;;;;;;;;;;;;;;21.93;42.87;99734.13;3074130;28;115742;-64
2021/01/28 06:44:14;;;;;;;;;;;;;;;21.97;42.69;99738.72;3065552;28;113986;-62
2021/01/28 06:45:48;;;;;;;;;;;;;;;21.99;42.71;99735.53;3069156;28;113972;-61
2021/01/28 06:47:23;;;;;;;;;;;;;;;22.02;42.90;99744.13;3064019;28;114182;-62
2021/01/28 06:49:07;;;;;;;;;;;;;;;22.06;42.62;99731.00;3069457;28;114980;-61
2021/01/28 06:50:45;;;;;;;;;;;;;;;22.09;42.68;99721.84;3072060;28;113893;-65
2021/01/28 06:52:19;;;;;;;;;;;;;;;22.13;42.40;99721.97;3071372;28;113953;-63
2021/01/28 06:53:58;;;;;;;;;;;;;;;22.15;42.47;99728.91;3068849;28;114291;-62
2021/01/28 06:55:33;;;;;;;;;;;;;;;22.18;42.41;99728.19;3070378;28;115526;-61
2021/01/28 06:57:14;;;;;;;;;;;;;;;22.21;42.17;99721.06;3072171;28;113870;-63
2021/01/28 06:58:46;;;;;;;;;;;;;;;22.25;42.03;99715.56;3071782;28;114174;-63
2021/01/28 07:00:21;;;;;;;;;;;;;;;22.28;42.22;99715.66;3071721;28;113883;-65
2021/01/28 07:01:59;;;;;;;;;;;;;;;22.30;42.12;99712.50;3071269;28;113852;-63
2021/01/28 07:03:34;;;;;;;;;;;;;;;22.34;42.06;99725.53;3071439;28;114056;-62
2021/01/28 07:05:08;;;;;;;;;;;;;;;22.37;41.95;99713.56;3070591;28;114285;-65
2021/01/28 07:06:44;;;;;;;;;;;;;;;22.40;41.95;99712.84;3076891;28;113765;-61
2021/01/28 07:08:23;;;;;;;;;;;;;;;22.43;42.04;99722.59;3072453;28;114157;-63
2021/01/28 07:09:55;;;;;;;;;;;;;;;22.46;41.67;99713.44;3065462;28;114376;-62
2021/01/28 07:11:32;;;;;;;;;;;;;;;22.48;41.86;99717.56;3070411;28;114078;-62
2021/01/28 07:13:06;;;;;;;;;;;;;;;22.52;41.73;99721.31;3077429;28;113886;-62
2021/01/28 07:14:38;;;;;;;;;;;;;;;22.55;41.75;99717.78;3052982;28;114334;-63
2021/01/28 07:16:16;;;;;;;;;;;;;;;22.58;41.62;99724.69;3066146;28;115240;-64
2021/01/28 07:17:53;;;;;;;;;;;;;;;22.60;41.67;99740.06;3072157;28;114239;-65
2021/01/28 07:19:27;;;;;;;;;;;;;;;22.63;41.83;99738.53;3071429;28;115564;-62
2021/01/28 07:21:01;;;;;;;;;;;;;;;22.66;41.63;99737.84;3067744;28;114280;-62
2021/01/28 07:22:33;;;;;;;;;;;;;;;22.69;41.49;99733.50;3072101;28;114035;-62
2021/01/28 07:24:08;;;;;;;;;;;;;;;22.71;41.58;99737.66;3071764;28;114089;-63
2021/01/28 07:25:41;;;;;;;;;;;;;;;22.74;42.51;99738.94;3072605;28;114219;-63
2021/01/28 07:27:13;;;;;;;;;;;;;;;22.78;41.91;99737.03;3065335;28;114356;-62
2021/01/28 07:28:46;;;;;;;;;;;;;;;22.79;41.92;99735.88;3068916;28;114126;-61
2021/01/28 07:30:20;;;;;;;;;;;;;;;22.82;41.54;99743.63;3074787;28;115688;-62
2021/01/28 07:31:52;;;;;;;;;;;;;;;22.84;41.59;99742.09;3073937;28;115242;-61
2021/01/28 07:33:23;;;;;;;;;;;;;;;;;;3074616;28;114895;-63
2021/01/28 07:34:58;;;;;;;;;;;;;;;22.89;41.59;99746.66;3073115;28;145226;-62
2021/01/28 07:36:30;;;;;;;;;;;;;;;22.91;41.50;99756.41;3065352;28;114559;-63
2021/01/28 07:38:05;;;;;;;;;;;;;;;22.93;41.31;99759.69;3063672;28;115826;-62
2021/01/28 07:39:37;;;;;;;;;;;;;;;22.97;41.25;99762.63;3072253;28;115131;-63
2021/01/28 07:41:10;;;;;;;;;;;;;;;22.98;41.29;99761.44;3073751;28;114411;-63
2021/01/28 07:43:01;;;;;;;;;;;;;;;23.00;41.12;99762.72;3068807;28;114607;-61
2021/01/28 07:44:34;;;;;;;;;;;;;;;23.03;41.09;99764.03;3063403;28;114772;-63
2021/01/28 07:46:08;;;;;;;;;;;;;;;23.05;41.17;99762.50;3073457;28;114992;-63
2021/01/28 07:47:41;;;;;;;;;;;;;;;23.07;40.83;99761.31;3073693;28;114576;-62
2021/01/28 07:49:14;;;;;;;;;;;;;;;23.10;40.82;99769.06;3059766;28;115067;-64
2021/01/28 07:50:47;;;;;;;;;;;;;;;23.12;41.13;99772.34;3073807;28;115683;-62
2021/01/28 07:52:19;;;;;;;;;;;;;;;23.13;41.20;99771.97;3073607;28;119045;-62
2021/01/28 07:53:52;;;;;;;;;;;;;;;23.14;40.81;99776.44;3073179;28;113853;-63
2021/01/28 07:55:29;;;;;;;;;;;;;;;23.16;41.32;99774.09;3072870;28;113937;-64
2021/01/28 07:57:02;;;;;;;;;;;;;;;23.17;41.00;99780.56;3071352;28;114077;-63